createdAt,value
2022-07-31T00:00:28.499Z,729.96
2022-07-31T00:01:28.495Z,730.09
2022-07-31T00:02:28.482Z,730.58
2022-07-31T00:03:28.553Z,730.78
2022-07-31T00:04:28.457Z,730.72
2022-07-31T00:05:28.451Z,731.12
2022-07-31T00:06:28.536Z,731.33
2022-07-31T00:07:28.419Z,731.93
2022-07-31T00:08:28.410Z,732.06
2022-07-31T00:09:53.905Z,732.82
2022-07-31T00:10:28.385Z,733.03
2022-07-31T00:11:28.387Z,733.57
2022-07-31T00:12:28.380Z,733.71
2022-07-31T00:13:57.306Z,733.77
2022-07-31T00:14:28.337Z,734.00
2022-07-31T00:15:28.331Z,734.44
2022-07-31T00:16:28.347Z,734.67
2022-07-31T00:17:28.315Z,735.00
2022-07-31T00:18:28.292Z,735.16
2022-07-31T00:19:28.312Z,735.27
2022-07-31T00:20:28.376Z,735.54
2022-07-31T00:21:28.264Z,735.87
2022-07-31T00:22:28.270Z,735.94
2022-07-31T00:23:28.243Z,736.21
2022-07-31T00:24:28.231Z,736.67
2022-07-31T00:25:28.227Z,736.91
2022-07-31T00:26:28.227Z,737.36
2022-07-31T00:27:28.211Z,737.71
2022-07-31T00:28:28.204Z,738.27
2022-07-31T00:29:28.177Z,738.45
2022-07-31T00:30:28.164Z,738.57
2022-07-31T00:31:28.160Z,738.39
2022-07-31T00:32:28.137Z,738.73
2022-07-31T00:33:28.142Z,739.03
2022-07-31T00:34:28.133Z,739.39
2022-07-31T00:35:28.121Z,739.42
2022-07-31T00:36:30.335Z,739.62
2022-07-31T00:37:28.094Z,739.88
2022-07-31T00:38:28.160Z,740.34
2022-07-31T00:39:28.099Z,740.68
2022-07-31T00:40:28.054Z,741.24
2022-07-31T00:41:28.043Z,741.91
2022-07-31T00:42:28.037Z,742.46
2022-07-31T00:43:30.763Z,743.06
2022-07-31T00:44:28.018Z,743.56
2022-07-31T00:45:29.291Z,744.05
2022-07-31T00:47:37.320Z,745.21
2022-07-31T00:48:38.309Z,745.41
2022-07-31T00:49:38.318Z,745.82
2022-07-31T00:50:38.306Z,746.27
2022-07-31T00:51:38.273Z,746.60
2022-07-31T00:52:38.266Z,746.89
2022-07-31T00:53:38.254Z,747.33
2022-07-31T00:54:38.245Z,747.79
2022-07-31T00:55:51.335Z,748.28
2022-07-31T00:56:38.238Z,748.59
2022-07-31T00:57:38.207Z,748.79
2022-07-31T00:58:38.199Z,748.97
2022-07-31T00:59:38.189Z,749.02
2022-07-31T01:00:38.189Z,749.35
2022-07-31T01:01:38.249Z,749.73
2022-07-31T01:02:38.164Z,749.94
2022-07-31T01:03:38.146Z,750.14
2022-07-31T01:04:38.135Z,750.45
2022-07-31T01:05:38.124Z,750.68
2022-07-31T01:06:42.515Z,750.82
2022-07-31T01:07:38.900Z,750.98
2022-07-31T01:08:38.094Z,751.29
2022-07-31T01:09:38.090Z,751.59
2022-07-31T01:10:38.066Z,751.71
2022-07-31T01:11:38.058Z,751.86
2022-07-31T01:12:38.065Z,752.26
2022-07-31T01:13:38.044Z,752.58
2022-07-31T01:14:38.024Z,753.04
2022-07-31T01:15:38.009Z,753.39
2022-07-31T01:16:38.005Z,753.78
2022-07-31T01:17:38.003Z,754.03
2022-07-31T01:18:37.978Z,753.78
2022-07-31T01:19:42.817Z,753.95
2022-07-31T01:20:37.957Z,754.29
2022-07-31T01:21:37.954Z,754.58
2022-07-31T01:22:37.946Z,754.96
2022-07-31T01:23:37.927Z,755.47
2022-07-31T01:24:37.935Z,755.81
2022-07-31T01:25:37.905Z,756.17
2022-07-31T01:26:37.887Z,756.58
2022-07-31T01:27:49.734Z,756.90
2022-07-31T01:28:38.429Z,757.21
2022-07-31T01:29:37.878Z,757.62
2022-07-31T01:30:37.870Z,758.08
2022-07-31T01:31:37.867Z,758.39
2022-07-31T01:32:38.453Z,758.63
2022-07-31T01:33:37.959Z,758.77
2022-07-31T01:34:37.849Z,759.19
2022-07-31T01:35:37.853Z,759.22
2022-07-31T01:36:37.877Z,759.71
2022-07-31T01:37:37.769Z,759.93
2022-07-31T01:38:39.564Z,760.11
2022-07-31T01:39:37.747Z,760.29
2022-07-31T01:40:37.730Z,760.45
2022-07-31T01:41:37.738Z,760.63
2022-07-31T01:42:37.721Z,760.77
2022-07-31T01:43:37.746Z,761.08
2022-07-31T01:44:37.701Z,761.51
2022-07-31T01:45:37.706Z,761.93
2022-07-31T01:46:41.491Z,762.40
2022-07-31T01:47:37.655Z,762.84
2022-07-31T01:48:37.654Z,763.29
2022-07-31T01:49:37.632Z,763.36
2022-07-31T01:50:43.720Z,763.46
2022-07-31T01:51:37.611Z,763.99
2022-07-31T01:52:37.598Z,763.91
2022-07-31T01:53:37.614Z,763.83
2022-07-31T01:54:37.589Z,763.62
2022-07-31T01:56:02.984Z,763.69
2022-07-31T01:56:37.571Z,763.93
2022-07-31T01:57:37.555Z,763.96
2022-07-31T01:58:37.553Z,764.08
2022-07-31T01:59:37.524Z,763.45
2022-07-31T02:00:37.530Z,762.47
2022-07-31T02:01:37.573Z,761.81
2022-07-31T02:02:37.494Z,760.67
2022-07-31T02:03:44.449Z,759.70
2022-07-31T02:04:37.490Z,758.56
2022-07-31T02:05:37.462Z,758.00
2022-07-31T02:06:37.450Z,757.71
2022-07-31T02:07:37.438Z,757.74
2022-07-31T02:08:37.443Z,757.96
2022-07-31T02:09:37.422Z,758.28
2022-07-31T02:10:37.433Z,758.73
2022-07-31T02:11:48.316Z,759.04
2022-07-31T02:12:37.380Z,758.92
2022-07-31T02:13:37.377Z,758.36
2022-07-31T02:14:37.395Z,757.84
2022-07-31T02:15:37.356Z,757.78
2022-07-31T02:16:37.337Z,758.17
2022-07-31T02:17:37.338Z,758.41
2022-07-31T02:18:37.317Z,758.90
2022-07-31T02:19:37.318Z,759.62
2022-07-31T02:20:37.311Z,760.06
2022-07-31T02:21:37.282Z,760.70
2022-07-31T02:22:37.271Z,761.61
2022-07-31T02:23:37.255Z,762.46
2022-07-31T02:24:37.277Z,763.25
2022-07-31T02:25:37.240Z,763.98
2022-07-31T02:26:37.233Z,764.63
2022-07-31T02:27:58.355Z,765.14
2022-07-31T02:28:37.204Z,765.74
2022-07-31T02:29:37.210Z,766.21
2022-07-31T02:30:38.801Z,766.60
2022-07-31T02:31:37.176Z,766.81
2022-07-31T02:32:37.159Z,766.92
2022-07-31T02:33:37.166Z,766.85
2022-07-31T02:34:37.177Z,766.70
2022-07-31T02:35:37.134Z,766.84
2022-07-31T02:36:37.959Z,767.38
2022-07-31T02:37:37.101Z,767.70
2022-07-31T02:38:37.100Z,767.73
2022-07-31T02:39:37.099Z,768.19
2022-07-31T02:40:37.086Z,768.59
2022-07-31T02:41:37.085Z,769.17
2022-07-31T02:42:37.049Z,769.65
2022-07-31T02:43:37.039Z,770.07
2022-07-31T02:44:37.034Z,770.29
2022-07-31T02:45:37.029Z,770.52
2022-07-31T02:46:37.007Z,770.36
2022-07-31T02:48:46.036Z,770.74
2022-07-31T02:49:46.939Z,770.61
2022-07-31T02:50:46.947Z,770.61
2022-07-31T02:51:46.911Z,770.83
2022-07-31T02:52:46.905Z,770.41
2022-07-31T02:53:46.889Z,770.17
2022-07-31T02:54:46.878Z,769.99
2022-07-31T02:55:46.878Z,769.43
2022-07-31T02:56:46.873Z,769.56
2022-07-31T02:57:46.846Z,769.24
2022-07-31T02:58:46.833Z,768.71
2022-07-31T02:59:46.831Z,768.37
2022-07-31T03:00:46.870Z,768.61
2022-07-31T03:01:46.818Z,768.51
2022-07-31T03:02:46.806Z,768.55
2022-07-31T03:03:46.784Z,768.65
2022-07-31T03:04:46.769Z,768.65
2022-07-31T03:05:46.780Z,768.86
2022-07-31T03:06:46.794Z,769.06
2022-07-31T03:07:46.739Z,769.25
2022-07-31T03:08:46.736Z,768.66
2022-07-31T03:09:46.721Z,768.42
2022-07-31T03:10:46.704Z,767.87
2022-07-31T03:11:46.710Z,767.31
2022-07-31T03:12:46.681Z,766.93
2022-07-31T03:13:46.676Z,766.67
2022-07-31T03:14:46.660Z,766.23
2022-07-31T03:15:51.016Z,766.21
2022-07-31T03:16:46.659Z,766.36
2022-07-31T03:17:47.457Z,766.71
2022-07-31T03:18:46.617Z,766.70
2022-07-31T03:19:46.608Z,766.97
2022-07-31T03:20:46.595Z,767.17
2022-07-31T03:21:46.600Z,767.42
2022-07-31T03:22:46.573Z,767.80
2022-07-31T03:23:46.578Z,767.79
2022-07-31T03:24:46.552Z,767.57
2022-07-31T03:25:46.547Z,767.39
2022-07-31T03:26:46.536Z,767.28
2022-07-31T03:27:46.531Z,767.08
2022-07-31T03:28:46.533Z,766.82
2022-07-31T03:29:46.512Z,766.72
2022-07-31T03:30:46.490Z,766.84
2022-07-31T03:31:46.473Z,766.77
2022-07-31T03:32:46.463Z,766.86
2022-07-31T03:33:46.455Z,766.90
2022-07-31T03:34:46.456Z,767.25
2022-07-31T03:35:46.433Z,767.31
2022-07-31T03:36:46.438Z,767.41
2022-07-31T03:37:46.436Z,767.38
2022-07-31T03:38:50.384Z,767.40
2022-07-31T03:39:46.403Z,767.62
2022-07-31T03:40:46.395Z,767.60
2022-07-31T03:41:46.370Z,767.53
2022-07-31T03:42:46.354Z,767.55
2022-07-31T03:43:47.902Z,767.78
2022-07-31T03:44:46.346Z,767.79
2022-07-31T03:45:46.335Z,767.81
2022-07-31T03:46:46.319Z,767.99
2022-07-31T03:47:46.327Z,767.92
2022-07-31T03:48:46.353Z,767.80
2022-07-31T03:49:46.296Z,767.78
2022-07-31T03:50:46.283Z,767.95
2022-07-31T03:51:46.275Z,768.03
2022-07-31T03:52:46.270Z,767.97
2022-07-31T03:53:46.236Z,768.25
2022-07-31T03:54:46.224Z,768.32
2022-07-31T03:55:46.215Z,768.47
2022-07-31T03:56:46.214Z,768.32
2022-07-31T03:57:47.638Z,768.51
2022-07-31T03:58:51.511Z,768.64
2022-07-31T03:59:48.177Z,768.75
2022-07-31T04:00:46.155Z,768.89
2022-07-31T04:01:57.641Z,769.12
2022-07-31T04:02:46.236Z,769.26
2022-07-31T04:03:46.121Z,769.35
2022-07-31T04:04:46.123Z,769.62
2022-07-31T04:05:46.098Z,769.81
2022-07-31T04:06:46.089Z,769.07
2022-07-31T04:07:46.093Z,768.94
2022-07-31T04:08:46.076Z,768.84
2022-07-31T04:09:46.061Z,768.85
2022-07-31T04:10:46.051Z,768.89
2022-07-31T04:11:46.033Z,768.76
2022-07-31T04:12:46.040Z,768.58
2022-07-31T04:13:46.028Z,768.30
2022-07-31T04:14:45.999Z,767.96
2022-07-31T04:15:45.995Z,767.44
2022-07-31T04:16:45.983Z,766.96
2022-07-31T04:17:45.965Z,766.46
2022-07-31T04:18:50.867Z,765.85
2022-07-31T04:19:45.957Z,765.32
2022-07-31T04:20:45.931Z,764.94
2022-07-31T04:21:45.928Z,764.36
2022-07-31T04:22:45.925Z,763.84
2022-07-31T04:23:48.262Z,763.57
2022-07-31T04:24:45.910Z,763.34
2022-07-31T04:25:45.898Z,763.04
2022-07-31T04:26:45.872Z,762.82
2022-07-31T04:27:48.777Z,762.69
2022-07-31T04:28:45.850Z,762.34
2022-07-31T04:29:45.852Z,762.22
2022-07-31T04:30:45.845Z,762.01
2022-07-31T04:31:45.818Z,761.83
2022-07-31T04:32:45.803Z,761.64
2022-07-31T04:33:46.372Z,761.42
2022-07-31T04:34:45.781Z,761.26
2022-07-31T04:35:45.785Z,761.17
2022-07-31T04:36:45.771Z,760.95
2022-07-31T04:37:48.530Z,760.73
2022-07-31T04:38:45.733Z,760.69
2022-07-31T04:39:45.721Z,760.55
2022-07-31T04:40:45.728Z,760.17
2022-07-31T04:41:45.720Z,759.93
2022-07-31T04:42:45.698Z,759.90
2022-07-31T04:43:45.679Z,759.71
2022-07-31T04:44:45.667Z,759.57
2022-07-31T04:45:45.665Z,759.73
2022-07-31T04:46:45.658Z,759.81
2022-07-31T04:47:45.638Z,759.72
2022-07-31T04:49:54.882Z,759.59
2022-07-31T04:50:55.885Z,759.34
2022-07-31T04:51:55.866Z,759.28
2022-07-31T04:52:55.841Z,759.29
2022-07-31T04:53:55.831Z,759.17
2022-07-31T04:54:55.824Z,758.76
2022-07-31T04:55:55.821Z,758.35
2022-07-31T04:56:55.811Z,757.94
2022-07-31T04:57:55.793Z,757.51
2022-07-31T04:58:55.778Z,757.26
2022-07-31T04:59:59.433Z,757.13
2022-07-31T05:00:55.765Z,757.23
2022-07-31T05:01:55.828Z,757.50
2022-07-31T05:02:55.736Z,757.27
2022-07-31T05:03:55.722Z,757.46
2022-07-31T05:04:57.204Z,757.12
2022-07-31T05:05:55.703Z,756.67
2022-07-31T05:06:55.706Z,756.16
2022-07-31T05:07:55.679Z,756.06
2022-07-31T05:08:55.662Z,755.87
2022-07-31T05:09:55.656Z,755.78
2022-07-31T05:10:55.644Z,755.89
2022-07-31T05:11:55.642Z,755.67
2022-07-31T05:12:55.624Z,755.35
2022-07-31T05:13:55.607Z,754.99
2022-07-31T05:14:55.596Z,754.97
2022-07-31T05:15:55.595Z,754.68
2022-07-31T05:16:55.610Z,754.39
2022-07-31T05:17:55.567Z,753.83
2022-07-31T05:18:55.558Z,753.32
2022-07-31T05:19:55.562Z,753.21
2022-07-31T05:20:55.534Z,753.21
2022-07-31T05:21:57.208Z,753.15
2022-07-31T05:22:55.522Z,753.56
2022-07-31T05:23:55.508Z,752.96
2022-07-31T05:24:55.492Z,752.70
2022-07-31T05:25:55.489Z,752.68
2022-07-31T05:26:55.464Z,752.29
2022-07-31T05:27:55.464Z,752.07
2022-07-31T05:28:58.388Z,751.79
2022-07-31T05:29:55.432Z,751.09
2022-07-31T05:30:55.421Z,750.60
2022-07-31T05:31:59.910Z,750.09
2022-07-31T05:32:55.399Z,750.08
2022-07-31T05:33:55.416Z,749.74
2022-07-31T05:34:55.377Z,748.99
2022-07-31T05:35:55.365Z,747.72
2022-07-31T05:36:55.362Z,746.54
2022-07-31T05:37:55.345Z,744.98
2022-07-31T05:38:55.351Z,744.59
2022-07-31T05:39:55.325Z,743.11
2022-07-31T05:40:55.310Z,742.71
2022-07-31T05:41:55.293Z,742.56
2022-07-31T05:42:55.288Z,741.31
2022-07-31T05:43:55.289Z,739.95
2022-07-31T05:44:55.278Z,738.78
2022-07-31T05:45:55.249Z,737.82
2022-07-31T05:47:56.043Z,737.21
2022-07-31T05:48:55.309Z,736.62
2022-07-31T05:49:55.218Z,737.07
2022-07-31T05:50:55.193Z,736.94
2022-07-31T05:51:55.192Z,736.19
2022-07-31T05:52:55.179Z,735.64
2022-07-31T05:53:55.171Z,734.75
2022-07-31T05:54:55.173Z,734.25
2022-07-31T05:55:55.145Z,734.28
2022-07-31T05:56:55.142Z,734.00
2022-07-31T05:57:55.124Z,733.30
2022-07-31T05:58:55.104Z,733.44
2022-07-31T05:59:55.105Z,733.71
2022-07-31T06:00:55.101Z,733.34
2022-07-31T06:01:55.170Z,732.78
2022-07-31T06:02:55.108Z,732.59
2022-07-31T06:03:55.081Z,731.86
2022-07-31T06:04:55.067Z,731.54
2022-07-31T06:05:55.056Z,730.83
2022-07-31T06:06:55.057Z,731.28
2022-07-31T06:07:55.030Z,731.49
2022-07-31T06:08:55.004Z,731.46
2022-07-31T06:09:54.991Z,731.14
2022-07-31T06:10:54.991Z,730.54
2022-07-31T06:11:54.977Z,730.78
2022-07-31T06:12:54.970Z,731.10
2022-07-31T06:13:54.950Z,731.31
2022-07-31T06:14:54.949Z,733.13
2022-07-31T06:15:54.924Z,733.66
2022-07-31T06:16:54.937Z,734.23
2022-07-31T06:17:54.925Z,733.94
2022-07-31T06:18:54.889Z,733.74
2022-07-31T06:19:54.874Z,732.99
2022-07-31T06:20:54.867Z,733.15
2022-07-31T06:21:54.867Z,732.54
2022-07-31T06:22:54.850Z,732.19
2022-07-31T06:23:54.836Z,733.23
2022-07-31T06:24:54.820Z,733.06
2022-07-31T06:25:54.811Z,733.50
2022-07-31T06:26:54.808Z,733.35
2022-07-31T06:27:59.956Z,732.89
2022-07-31T06:28:54.793Z,733.27
2022-07-31T06:29:54.761Z,732.60
2022-07-31T06:30:54.773Z,732.93
2022-07-31T06:31:54.745Z,732.99
2022-07-31T06:32:54.768Z,732.87
2022-07-31T06:33:54.739Z,732.40
2022-07-31T06:34:54.725Z,731.76
2022-07-31T06:35:54.712Z,731.39
2022-07-31T06:36:54.690Z,731.09
2022-07-31T06:37:54.677Z,731.01
2022-07-31T06:38:54.671Z,730.52
2022-07-31T06:39:56.303Z,730.00
2022-07-31T06:40:54.644Z,729.69
2022-07-31T06:41:54.631Z,729.61
2022-07-31T06:42:54.621Z,730.58
2022-07-31T06:43:54.641Z,730.47
2022-07-31T06:44:54.620Z,729.87
2022-07-31T06:45:54.590Z,729.21
2022-07-31T06:46:54.587Z,729.04
2022-07-31T06:47:54.566Z,728.47
2022-07-31T06:48:54.621Z,727.62
2022-07-31T06:51:29.070Z,726.56
2022-07-31T06:52:05.609Z,725.55
2022-07-31T06:53:04.482Z,725.00
2022-07-31T06:54:04.475Z,724.24
2022-07-31T06:55:04.460Z,723.93
2022-07-31T06:56:04.447Z,723.66
2022-07-31T06:57:04.452Z,722.50
2022-07-31T06:58:04.433Z,721.62
2022-07-31T06:59:04.431Z,720.48
2022-07-31T07:00:15.132Z,719.93
2022-07-31T07:01:04.473Z,718.78
2022-07-31T07:02:04.628Z,717.55
2022-07-31T07:03:04.373Z,717.15
2022-07-31T07:04:04.373Z,716.51
2022-07-31T07:05:06.857Z,715.96
2022-07-31T07:06:04.341Z,715.44
2022-07-31T07:07:04.349Z,714.58
2022-07-31T07:08:04.314Z,714.04
2022-07-31T07:09:04.326Z,715.40
2022-07-31T07:10:04.292Z,715.75
2022-07-31T07:11:04.286Z,715.49
2022-07-31T07:12:04.483Z,714.72
2022-07-31T07:13:04.272Z,714.75
2022-07-31T07:14:04.290Z,715.13
2022-07-31T07:15:04.270Z,714.33
2022-07-31T07:16:04.237Z,713.78
2022-07-31T07:17:04.234Z,713.82
2022-07-31T07:18:04.206Z,715.36
2022-07-31T07:19:04.215Z,716.71
2022-07-31T07:20:04.199Z,716.48
2022-07-31T07:21:04.180Z,715.75
2022-07-31T07:22:04.386Z,715.18
2022-07-31T07:23:04.194Z,714.23
2022-07-31T07:24:04.171Z,713.97
2022-07-31T07:25:04.141Z,714.90
2022-07-31T07:26:04.179Z,715.29
2022-07-31T07:27:04.140Z,716.92
2022-07-31T07:28:04.110Z,717.77
2022-07-31T07:29:04.100Z,717.15
2022-07-31T07:30:04.131Z,716.08
2022-07-31T07:31:04.082Z,714.96
2022-07-31T07:32:04.388Z,713.80
2022-07-31T07:33:04.050Z,712.61
2022-07-31T07:34:04.048Z,712.20
2022-07-31T07:35:04.040Z,712.04
2022-07-31T07:36:04.027Z,710.96
2022-07-31T07:37:04.015Z,709.50
2022-07-31T07:38:03.995Z,708.30
2022-07-31T07:39:03.989Z,708.24
2022-07-31T07:40:04.342Z,706.90
2022-07-31T07:41:03.975Z,706.03
2022-07-31T07:42:04.363Z,705.95
2022-07-31T07:43:03.941Z,705.16
2022-07-31T07:44:03.956Z,705.24
2022-07-31T07:45:08.063Z,705.46
2022-07-31T07:46:03.923Z,704.95
2022-07-31T07:47:03.908Z,704.45
2022-07-31T07:48:06.583Z,704.41
2022-07-31T07:49:03.936Z,704.11
2022-07-31T07:50:03.867Z,704.10
2022-07-31T07:51:03.877Z,703.68
2022-07-31T07:52:03.851Z,702.76
2022-07-31T07:53:03.835Z,702.42
2022-07-31T07:54:03.817Z,702.67
2022-07-31T07:55:03.807Z,704.48
2022-07-31T07:56:03.818Z,704.50
2022-07-31T07:57:03.822Z,704.74
2022-07-31T07:58:03.807Z,704.75
2022-07-31T07:59:03.766Z,705.16
2022-07-31T08:00:03.768Z,705.56
2022-07-31T08:01:03.808Z,703.75
2022-07-31T08:02:04.129Z,701.76
2022-07-31T08:03:48.521Z,701.54
2022-07-31T08:04:03.710Z,700.86
2022-07-31T08:05:03.704Z,700.36
2022-07-31T08:06:03.700Z,700.27
2022-07-31T08:07:03.697Z,699.38
2022-07-31T08:08:03.692Z,700.43
2022-07-31T08:09:03.680Z,700.44
2022-07-31T08:10:03.648Z,700.14
2022-07-31T08:11:03.647Z,699.70
2022-07-31T08:12:04.012Z,699.66
2022-07-31T08:13:03.619Z,701.16
2022-07-31T08:14:03.621Z,702.49
2022-07-31T08:15:03.599Z,703.34
2022-07-31T08:16:03.586Z,703.28
2022-07-31T08:17:03.576Z,702.79
2022-07-31T08:18:03.571Z,702.16
2022-07-31T08:19:03.578Z,702.92
2022-07-31T08:20:03.550Z,702.97
2022-07-31T08:21:03.540Z,703.74
2022-07-31T08:22:03.758Z,703.79
2022-07-31T08:23:03.521Z,704.33
2022-07-31T08:24:03.520Z,703.99
2022-07-31T08:25:05.386Z,703.32
2022-07-31T08:26:03.480Z,704.58
2022-07-31T08:27:03.470Z,703.95
2022-07-31T08:28:03.461Z,702.53
2022-07-31T08:29:05.128Z,701.48
2022-07-31T08:30:03.454Z,702.14
2022-07-31T08:31:03.430Z,702.80
2022-07-31T08:32:03.797Z,701.98
2022-07-31T08:33:03.408Z,700.35
2022-07-31T08:34:03.411Z,699.01
2022-07-31T08:35:03.397Z,699.18
2022-07-31T08:36:03.389Z,699.54
2022-07-31T08:37:57.524Z,700.18
2022-07-31T08:38:04.790Z,701.55
2022-07-31T08:39:03.339Z,700.57
2022-07-31T08:40:03.360Z,702.14
2022-07-31T08:41:03.334Z,703.26
2022-07-31T08:42:03.706Z,702.76
2022-07-31T08:43:07.475Z,703.93
2022-07-31T08:44:04.573Z,703.79
2022-07-31T08:45:03.294Z,703.55
2022-07-31T08:46:03.313Z,703.19
2022-07-31T08:47:03.264Z,702.75
2022-07-31T08:48:03.252Z,701.82
2022-07-31T08:49:03.313Z,701.11
2022-07-31T08:50:03.231Z,700.38
2022-07-31T08:52:12.185Z,699.66
2022-07-31T08:53:13.165Z,699.60
2022-07-31T08:54:13.147Z,700.38
2022-07-31T08:55:55.397Z,700.87
2022-07-31T08:56:13.123Z,700.43
2022-07-31T08:57:13.197Z,700.19
2022-07-31T08:58:13.112Z,699.43
2022-07-31T08:59:13.093Z,699.18
2022-07-31T09:00:13.092Z,699.60
2022-07-31T09:01:13.210Z,699.86
2022-07-31T09:02:13.077Z,699.08
2022-07-31T09:03:13.051Z,698.11
2022-07-31T09:04:13.043Z,696.89
2022-07-31T09:05:13.028Z,695.81
2022-07-31T09:06:13.021Z,694.80
2022-07-31T09:07:13.014Z,693.60
2022-07-31T09:08:15.076Z,693.01
2022-07-31T09:09:12.991Z,694.41
2022-07-31T09:10:12.970Z,694.74
2022-07-31T09:11:12.967Z,693.73
2022-07-31T09:12:12.978Z,692.78
2022-07-31T09:13:12.975Z,691.73
2022-07-31T09:14:12.927Z,691.36
2022-07-31T09:15:12.921Z,690.33
2022-07-31T09:16:12.925Z,689.95
2022-07-31T09:17:12.899Z,692.03
2022-07-31T09:18:12.901Z,691.39
2022-07-31T09:19:51.740Z,692.12
2022-07-31T09:20:12.867Z,691.96
2022-07-31T09:21:12.855Z,691.73
2022-07-31T09:22:12.845Z,690.89
2022-07-31T09:23:12.854Z,691.50
2022-07-31T09:24:12.823Z,692.51
2022-07-31T09:25:12.824Z,693.21
2022-07-31T09:26:12.800Z,693.03
2022-07-31T09:27:12.797Z,692.99
2022-07-31T09:28:12.790Z,694.14
2022-07-31T09:29:12.763Z,693.84
2022-07-31T09:30:12.781Z,692.47
2022-07-31T09:31:12.751Z,691.13
2022-07-31T09:32:12.745Z,689.53
2022-07-31T09:33:12.744Z,690.55
2022-07-31T09:34:12.714Z,691.24
2022-07-31T09:35:12.703Z,691.57
2022-07-31T09:36:12.694Z,692.60
2022-07-31T09:37:12.684Z,692.72
2022-07-31T09:38:12.682Z,691.78
2022-07-31T09:39:12.657Z,691.32
2022-07-31T09:40:12.652Z,689.90
2022-07-31T09:41:55.469Z,690.67
2022-07-31T09:42:16.971Z,691.14
2022-07-31T09:43:12.649Z,693.16
2022-07-31T09:44:12.633Z,691.65
2022-07-31T09:45:12.656Z,690.30
2022-07-31T09:46:12.588Z,688.78
2022-07-31T09:47:12.571Z,689.04
2022-07-31T09:48:15.279Z,690.02
2022-07-31T09:49:12.694Z,690.77
2022-07-31T09:50:12.555Z,690.27
2022-07-31T09:51:12.563Z,691.08
2022-07-31T09:52:12.535Z,693.81
2022-07-31T09:53:12.507Z,695.25
2022-07-31T09:54:12.523Z,695.48
2022-07-31T09:55:14.246Z,694.67
2022-07-31T09:56:12.491Z,692.48
2022-07-31T09:57:12.475Z,690.84
2022-07-31T09:58:12.453Z,689.30
2022-07-31T09:59:12.454Z,690.33
2022-07-31T10:00:17.078Z,689.32
2022-07-31T10:01:12.513Z,687.58
2022-07-31T10:02:12.429Z,687.03
2022-07-31T10:03:12.429Z,686.38
2022-07-31T10:04:12.411Z,685.49
2022-07-31T10:05:12.392Z,686.90
2022-07-31T10:06:16.001Z,686.42
2022-07-31T10:07:12.359Z,687.18
2022-07-31T10:08:12.358Z,687.19
2022-07-31T10:09:12.355Z,687.55
2022-07-31T10:10:12.407Z,686.73
2022-07-31T10:11:16.517Z,688.17
2022-07-31T10:12:16.112Z,690.01
2022-07-31T10:13:12.301Z,689.27
2022-07-31T10:14:12.321Z,688.08
2022-07-31T10:15:12.282Z,687.97
2022-07-31T10:16:12.266Z,689.00
2022-07-31T10:17:12.253Z,688.56
2022-07-31T10:18:12.248Z,687.72
2022-07-31T10:19:12.263Z,686.46
2022-07-31T10:20:12.265Z,685.35
2022-07-31T10:21:12.215Z,686.13
2022-07-31T10:22:12.230Z,687.09
2022-07-31T10:23:12.190Z,687.83
2022-07-31T10:24:12.201Z,686.76
2022-07-31T10:25:12.189Z,686.53
2022-07-31T10:26:12.165Z,686.60
2022-07-31T10:27:12.592Z,688.53
2022-07-31T10:28:12.136Z,690.19
2022-07-31T10:29:12.140Z,689.15
2022-07-31T10:30:12.148Z,688.16
2022-07-31T10:31:12.105Z,688.95
2022-07-31T10:32:12.095Z,690.09
2022-07-31T10:33:34.129Z,688.67
2022-07-31T10:34:12.100Z,687.51
2022-07-31T10:35:12.076Z,686.55
2022-07-31T10:36:12.076Z,688.07
2022-07-31T10:37:12.054Z,686.75
2022-07-31T10:38:12.041Z,686.73
2022-07-31T10:39:12.026Z,686.73
2022-07-31T10:40:12.010Z,687.13
2022-07-31T10:41:12.023Z,689.76
2022-07-31T10:42:11.994Z,691.60
2022-07-31T10:43:11.981Z,692.41
2022-07-31T10:44:11.990Z,692.54
2022-07-31T10:45:11.972Z,692.83
2022-07-31T10:46:11.963Z,692.78
2022-07-31T10:47:11.962Z,692.03
2022-07-31T10:48:11.925Z,691.75
2022-07-31T10:49:11.945Z,693.42
2022-07-31T10:50:11.902Z,692.97
2022-07-31T10:51:11.909Z,692.92
2022-07-31T10:53:20.425Z,693.64
2022-07-31T10:54:21.426Z,693.95
2022-07-31T10:55:21.400Z,694.55
2022-07-31T10:56:21.404Z,694.17
2022-07-31T10:57:21.374Z,694.88
2022-07-31T10:58:21.366Z,693.80
2022-07-31T10:59:21.352Z,693.05
2022-07-31T11:00:21.341Z,692.66
2022-07-31T11:01:21.424Z,693.03
2022-07-31T11:02:21.339Z,691.32
2022-07-31T11:03:21.323Z,692.36
2022-07-31T11:04:21.305Z,692.62
2022-07-31T11:05:21.301Z,693.61
2022-07-31T11:06:21.285Z,694.46
2022-07-31T11:07:21.279Z,693.52
2022-07-31T11:08:21.277Z,692.61
2022-07-31T11:09:21.252Z,692.87
2022-07-31T11:10:21.236Z,692.16
2022-07-31T11:11:24.670Z,691.57
2022-07-31T11:12:21.820Z,692.61
2022-07-31T11:13:21.237Z,693.80
2022-07-31T11:14:21.219Z,694.30
2022-07-31T11:15:21.183Z,693.94
2022-07-31T11:16:21.180Z,692.15
2022-07-31T11:18:20.656Z,691.74
2022-07-31T11:18:24.331Z,691.49
2022-07-31T11:19:21.160Z,690.98
2022-07-31T11:20:21.134Z,691.52
2022-07-31T11:21:37.961Z,691.51
2022-07-31T11:22:32.224Z,692.35
2022-07-31T11:23:21.100Z,694.01
2022-07-31T11:24:21.153Z,694.22
2022-07-31T11:25:21.097Z,692.65
2022-07-31T11:26:32.949Z,690.97
2022-07-31T11:27:21.068Z,692.44
2022-07-31T11:28:21.057Z,692.28
2022-07-31T11:30:01.280Z,693.22
2022-07-31T11:30:21.030Z,691.82
2022-07-31T11:31:21.014Z,693.33
2022-07-31T11:32:22.911Z,692.66
2022-07-31T11:33:20.995Z,693.88
2022-07-31T11:34:20.993Z,693.38
2022-07-31T11:35:20.987Z,692.76
2022-07-31T11:36:20.965Z,692.65
2022-07-31T11:37:20.950Z,692.31
2022-07-31T11:38:20.938Z,692.61
2022-07-31T11:39:28.314Z,692.17
2022-07-31T11:40:22.168Z,691.53
2022-07-31T11:41:22.772Z,691.00
2022-07-31T11:42:24.317Z,691.90
2022-07-31T11:43:26.052Z,690.55
2022-07-31T11:44:20.893Z,689.24
2022-07-31T11:45:20.900Z,690.39
2022-07-31T11:46:20.854Z,691.48
2022-07-31T11:47:27.840Z,691.53
2022-07-31T11:48:20.849Z,692.07
2022-07-31T11:49:20.899Z,692.27
2022-07-31T11:50:20.828Z,691.91
2022-07-31T11:51:20.814Z,691.01
2022-07-31T11:52:30.850Z,690.28
2022-07-31T11:53:20.787Z,691.01
2022-07-31T11:54:20.784Z,690.91
2022-07-31T11:55:20.763Z,689.33
2022-07-31T11:56:20.774Z,689.20
2022-07-31T11:57:20.756Z,688.00
2022-07-31T11:58:20.760Z,688.37
2022-07-31T11:59:45.392Z,687.15
2022-07-31T12:00:27.151Z,686.50
2022-07-31T12:01:20.706Z,685.33
2022-07-31T12:02:20.766Z,683.82
2022-07-31T12:03:20.698Z,683.71
2022-07-31T12:04:20.668Z,685.61
2022-07-31T12:05:35.278Z,687.34
2022-07-31T12:06:20.672Z,686.87
2022-07-31T12:07:20.648Z,686.15
2022-07-31T12:08:20.653Z,687.22
2022-07-31T12:10:01.233Z,689.41
2022-07-31T12:10:20.616Z,689.64
2022-07-31T12:11:20.607Z,689.89
2022-07-31T12:12:20.588Z,689.69
2022-07-31T12:13:20.583Z,689.56
2022-07-31T12:14:20.570Z,689.64
2022-07-31T12:15:20.555Z,688.94
2022-07-31T12:16:20.543Z,688.98
2022-07-31T12:17:20.533Z,689.14
2022-07-31T12:18:20.644Z,689.13
2022-07-31T12:19:20.545Z,689.24
2022-07-31T12:20:34.486Z,689.90
2022-07-31T12:21:20.491Z,691.13
2022-07-31T12:22:20.491Z,692.54
2022-07-31T12:23:38.667Z,691.17
2022-07-31T12:24:20.461Z,690.97
2022-07-31T12:25:20.451Z,691.16
2022-07-31T12:26:20.436Z,690.69
2022-07-31T12:27:20.440Z,689.73
2022-07-31T12:28:20.419Z,690.12
2022-07-31T12:29:20.415Z,687.99
2022-07-31T12:30:20.398Z,687.36
2022-07-31T12:31:20.409Z,686.90
2022-07-31T12:32:20.388Z,685.94
2022-07-31T12:33:20.384Z,685.18
2022-07-31T12:34:20.375Z,686.92
2022-07-31T12:35:20.361Z,688.59
2022-07-31T12:36:20.334Z,687.59